Noti, Oregon
Current Conditions -  °F | °C
As of 7:54 AM on Tuesday 21 Oct 2014 (Local Time) from KEUG Reporting Station
Broken Clouds Broken Clouds  
Wind Chill: 53°   Ceiling: 2800
Heat Index: 53°   Visibility: 10mi
Dew Point: 48°   Wind: 7mph
Humidity: 83%   Direction: 170°S
Pressure: 30.01"   Gusts: NA
Location:  44.06°N, 123.45°W
Report Text: KEUG 211454Z 17006KT 10SM BKN028 12/09 A3001 RMK AO2 SLP163 T01170089 51013
Loading
Personal Weather Stations






























Interactive Weather Map
Tropical Storm Tracking
New forecast layout! Learn more

10-Day Weather Forecast

Advertisements
Track Severe Weather on mobile